Time;durP1;ratioP1;P1;durP2;ratioP2;P2;SDS_P1;SDS_P2;PMS_P1;PMS_P2;Temp;Humidity;BMP_temperature;BMP_pressure;BME280_temperature;BME280_humidity;BME280_pressure;Samples;Min_cycle;Max_cycle;Signal;HPM_P1;HPM_P2
2022/03/25 00:01:57;;;;;;;32.07;27.30;;;;;;;;;;5075595;28;24422;-50
2022/03/25 00:04:22;;;;;;;29.98;26.58;;;;;;;;;;5078643;28;24518;-50
2022/03/25 00:06:47;;;;;;;32.17;27.37;;;;;;;;;;5072397;28;24945;-50
2022/03/25 00:09:12;;;;;;;33.50;29.13;;;;;;;;;;5079558;28;24419;-50
2022/03/25 00:11:38;;;;;;;32.40;28.50;;;;;;;;;;5072506;28;24718;-50
2022/03/25 00:14:03;;;;;;;30.70;27.20;;;;;;;;;;5075191;28;24557;-50
2022/03/25 00:16:28;;;;;;;33.97;28.03;;;;;;;;;;5075880;28;24498;-50
2022/03/25 00:18:54;;;;;;;32.40;27.48;;;;;;;;;;5074562;28;24518;-50
2022/03/25 00:21:19;;;;;;;31.37;27.63;;;;;;;;;;5074183;28;24726;-50
2022/03/25 00:23:45;;;;;;;31.90;27.90;;;;;;;;;;5077405;28;24773;-50
2022/03/25 00:26:10;;;;;;;31.42;27.52;;;;;;;;;;5083795;28;24517;-51
2022/03/25 00:28:36;;;;;;;31.73;27.17;;;;;;;;;;5082315;28;24421;-51
2022/03/25 00:31:03;;;;;;;32.88;27.92;;;;;;;;;;5077112;28;24429;-50
2022/03/25 00:33:28;;;;;;;31.63;27.73;;;;;;;;;;5072586;28;25019;-50
2022/03/25 00:35:54;;;;;;;32.85;27.95;;;;;;;;;;5075013;28;24442;-50
2022/03/25 00:38:19;;;;;;;31.07;27.70;;;;;;;;;;5084108;28;24845;-50
2022/03/25 00:40:44;;;;;;;31.63;27.57;;;;;;;;;;5076714;28;24519;-51
2022/03/25 00:43:09;;;;;;;32.87;27.80;;;;;;;;;;5068641;28;24423;-50
2022/03/25 00:45:35;;;;;;;34.57;28.67;;;;;;;;;;5075074;28;25006;-50
2022/03/25 00:48:00;;;;;;;31.42;27.90;;;;;;;;;;5070388;28;24418;-50
2022/03/25 00:50:26;;;;;;;33.93;28.10;;;;;;;;;;5077127;28;24465;-50
2022/03/25 00:52:51;;;;;;;31.67;28.10;;;;;;;;;;5084338;28;24410;-50
2022/03/25 00:55:16;;;;;;;34.63;28.63;;;;;;;;;;5078948;28;24536;-51
2022/03/25 00:57:41;;;;;;;33.13;28.30;;;;;;;;;;5080500;28;24410;-50
2022/03/25 01:00:07;;;;;;;31.33;27.85;;;;;;;;;;5067235;28;25190;-50
2022/03/25 01:02:34;;;;;;;34.50;28.85;;;;;;;;;;5079700;28;24479;-51
2022/03/25 01:04:59;;;;;;;34.20;28.67;;;;;;;;;;5084949;28;24995;-50
2022/03/25 01:07:24;;;;;;;31.97;27.67;;;;;;;;;;5076640;28;24429;-50
2022/03/25 01:09:50;;;;;;;34.67;29.13;;;;;;;;;;5078523;28;24422;-51
2022/03/25 01:12:15;;;;;;;32.93;28.97;;;;;;;;;;5079367;28;24407;-51
2022/03/25 01:14:40;;;;;;;32.07;28.57;;;;;;;;;;5072729;28;24410;-51
2022/03/25 01:17:05;;;;;;;32.50;28.20;;;;;;;;;;5077747;28;24426;-51
2022/03/25 01:19:31;;;;;;;33.70;28.53;;;;;;;;;;5069635;28;24418;-51
2022/03/25 01:21:56;;;;;;;32.10;28.70;;;;;;;;;;5083574;28;24422;-50
2022/03/25 01:24:21;;;;;;;34.53;29.13;;;;;;;;;;5083335;28;24410;-52
2022/03/25 01:26:47;;;;;;;33.57;29.87;;;;;;;;;;5080586;28;24451;-51
2022/03/25 01:29:12;;;;;;;32.13;27.67;;;;;;;;;;5074058;28;24422;-51
2022/03/25 01:31:38;;;;;;;34.90;28.73;;;;;;;;;;5098471;28;24480;-51
2022/03/25 01:34:03;;;;;;;33.97;29.83;;;;;;;;;;5104284;28;24441;-50
2022/03/25 01:36:28;;;;;;;33.30;28.70;;;;;;;;;;5080889;28;24506;-51
2022/03/25 01:38:53;;;;;;;31.90;27.73;;;;;;;;;;5079427;28;24449;-50
2022/03/25 01:41:19;;;;;;;33.87;28.23;;;;;;;;;;5080439;28;24515;-51
2022/03/25 01:43:50;;;;;;;33.50;28.23;;;;;;;;;;5077649;28;24426;-50
2022/03/25 01:46:16;;;;;;;32.45;27.65;;;;;;;;;;5084115;28;24460;-51
2022/03/25 01:48:41;;;;;;;33.20;27.93;;;;;;;;;;5085318;28;24426;-50
2022/03/25 01:51:06;;;;;;;31.30;27.80;;;;;;;;;;5083255;28;24430;-51
2022/03/25 01:53:31;;;;;;;31.30;26.92;;;;;;;;;;5087442;28;24410;-50
2022/03/25 01:55:58;;;;;;;29.40;26.30;;;;;;;;;;5082565;28;24450;-49
2022/03/25 01:58:24;;;;;;;29.95;25.27;;;;;;;;;;5073136;28;24500;-50
2022/03/25 02:00:50;;;;;;;30.90;24.70;;;;;;;;;;5087908;28;25108;-50
2022/03/25 02:03:16;;;;;;;31.93;24.43;;;;;;;;;;5069837;28;24480;-49
2022/03/25 02:05:41;;;;;;;34.88;26.05;;;;;;;;;;5085506;28;24411;-50
2022/03/25 02:08:06;;;;;;;30.00;24.90;;;;;;;;;;5082341;28;25002;-50
2022/03/25 02:10:32;;;;;;;31.93;26.20;;;;;;;;;;5080932;28;24521;-50
2022/03/25 02:12:57;;;;;;;33.00;26.67;;;;;;;;;;5068812;28;24418;-50
2022/03/25 02:15:32;;;;;;;32.47;27.00;;;;;;;;;;5074406;28;24904;-49
2022/03/25 02:17:57;;;;;;;32.47;27.15;;;;;;;;;;5081536;28;24414;-50
2022/03/25 02:20:22;;;;;;;32.73;27.97;;;;;;;;;;5078214;28;24422;-50
2022/03/25 02:22:47;;;;;;;32.55;27.13;;;;;;;;;;5083992;28;24565;-50
2022/03/25 02:25:14;;;;;;;32.85;28.27;;;;;;;;;;5084417;28;25019;-50
2022/03/25 02:27:39;;;;;;;35.65;27.13;;;;;;;;;;5087211;28;24434;-50
2022/03/25 02:30:06;;;;;;;31.90;27.97;;;;;;;;;;5083248;28;24480;-50
2022/03/25 02:32:31;;;;;;;32.55;27.77;;;;;;;;;;5072571;28;24816;-50
2022/03/25 02:34:56;;;;;;;32.03;27.13;;;;;;;;;;5076986;28;25013;-50
2022/03/25 02:37:24;;;;;;;31.77;27.50;;;;;;;;;;5071506;28;24415;-50
2022/03/25 02:39:50;;;;;;;30.17;26.95;;;;;;;;;;5071770;28;24414;-50
2022/03/25 02:42:15;;;;;;;32.13;26.90;;;;;;;;;;5085923;28;24411;-50
2022/03/25 02:44:40;;;;;;;31.55;25.85;;;;;;;;;;5086458;28;25182;-50
2022/03/25 02:47:06;;;;;;;30.02;25.08;;;;;;;;;;5087185;28;24402;-50
2022/03/25 02:49:31;;;;;;;29.60;23.90;;;;;;;;;;5085085;28;24425;-50
2022/03/25 02:51:56;;;;;;;27.50;24.40;;;;;;;;;;5079207;28;24426;-50
2022/03/25 02:54:22;;;;;;;28.58;23.63;;;;;;;;;;5079934;28;24441;-51
2022/03/25 02:56:47;;;;;;;30.07;24.10;;;;;;;;;;5078618;28;24406;-50
2022/03/25 02:59:12;;;;;;;26.10;23.30;;;;;;;;;;5077570;28;24511;-50
2022/03/25 03:01:37;;;;;;;28.73;23.85;;;;;;;;;;5078122;28;24858;-50
2022/03/25 03:04:02;;;;;;;27.77;24.17;;;;;;;;;;5082654;28;24548;-50
2022/03/25 03:06:27;;;;;;;26.53;23.13;;;;;;;;;;5068299;28;24422;-50
2022/03/25 03:08:52;;;;;;;28.35;23.85;;;;;;;;;;5068012;28;24508;-50
2022/03/25 03:11:18;;;;;;;27.10;22.70;;;;;;;;;;5082762;28;24515;-50
2022/03/25 03:13:44;;;;;;;26.75;22.77;;;;;;;;;;5070361;28;24468;-50
2022/03/25 03:16:09;;;;;;;29.35;23.45;;;;;;;;;;5072769;28;24492;-50
2022/03/25 03:18:34;;;;;;;26.20;23.40;;;;;;;;;;5077113;28;24862;-50
2022/03/25 03:20:59;;;;;;;27.15;23.73;;;;;;;;;;5078952;28;24480;-51
2022/03/25 03:23:24;;;;;;;24.67;22.07;;;;;;;;;;5080347;28;24475;-50
2022/03/25 03:25:49;;;;;;;25.83;23.03;;;;;;;;;;5082947;28;24410;-52
2022/03/25 03:28:15;;;;;;;25.60;22.80;;;;;;;;;;5082153;28;24426;-50
2022/03/25 03:30:40;;;;;;;27.38;23.67;;;;;;;;;;5072659;28;24418;-50
2022/03/25 03:33:05;;;;;;;27.10;24.20;;;;;;;;;;5070798;28;24521;-50
2022/03/25 03:35:32;;;;;;;28.05;22.42;;;;;;;;;;5085712;28;24411;-50
2022/03/25 03:37:57;;;;;;;26.77;23.88;;;;;;;;;;5070806;28;24406;-50
2022/03/25 03:40:22;;;;;;;28.10;24.03;;;;;;;;;;5075264;28;24443;-50
2022/03/25 03:42:47;;;;;;;27.65;24.23;;;;;;;;;;5079018;28;24447;-50
2022/03/25 03:45:13;;;;;;;28.63;24.30;;;;;;;;;;5082301;28;24434;-50
2022/03/25 03:47:39;;;;;;;28.15;24.27;;;;;;;;;;5065436;28;24425;-50
2022/03/25 03:50:05;;;;;;;27.33;24.27;;;;;;;;;;5073137;28;24418;-49
2022/03/25 03:52:30;;;;;;;28.88;23.92;;;;;;;;;;5066563;28;24418;-50
2022/03/25 03:54:56;;;;;;;28.47;24.53;;;;;;;;;;5064820;28;25089;-50
2022/03/25 03:57:21;;;;;;;27.70;24.30;;;;;;;;;;5066949;28;24415;-53
2022/03/25 03:59:46;;;;;;;29.40;24.80;;;;;;;;;;5073100;28;24968;-50
2022/03/25 04:02:11;;;;;;;27.70;24.70;;;;;;;;;;5079474;28;24425;-49
2022/03/25 04:04:36;;;;;;;28.20;24.70;;;;;;;;;;5071402;28;24580;-49
2022/03/25 04:07:02;;;;;;;28.80;24.67;;;;;;;;;;5070641;28;24975;-51
2022/03/25 04:09:27;;;;;;;29.58;25.17;;;;;;;;;;5081509;28;24476;-50
2022/03/25 04:11:53;;;;;;;28.43;24.47;;;;;;;;;;5070945;28;25178;-50
2022/03/25 04:14:19;;;;;;;29.00;24.00;;;;;;;;;;5073091;28;24417;-50
2022/03/25 04:16:44;;;;;;;31.10;25.90;;;;;;;;;;5072222;28;24454;-50
2022/03/25 04:19:09;;;;;;;27.30;24.30;;;;;;;;;;5071876;28;25028;-50
2022/03/25 04:21:34;;;;;;;25.92;22.75;;;;;;;;;;5081490;28;24503;-50
2022/03/25 04:24:00;;;;;;;27.40;23.83;;;;;;;;;;5073752;28;24430;-50
2022/03/25 04:26:25;;;;;;;25.85;23.05;;;;;;;;;;5083282;28;24971;-50
2022/03/25 04:28:50;;;;;;;25.20;22.57;;;;;;;;;;5081099;28;24422;-50
2022/03/25 04:31:15;;;;;;;24.38;21.33;;;;;;;;;;5070958;28;24434;-50
2022/03/25 04:33:40;;;;;;;27.47;21.73;;;;;;;;;;5075350;28;24829;-50
2022/03/25 04:36:06;;;;;;;25.80;22.03;;;;;;;;;;5067924;28;24461;-50
2022/03/25 04:38:31;;;;;;;24.90;22.20;;;;;;;;;;5085003;28;24413;-53
2022/03/25 04:40:56;;;;;;;27.20;23.00;;;;;;;;;;5079097;28;24482;-50
2022/03/25 04:43:22;;;;;;;26.30;22.60;;;;;;;;;;5066444;28;24411;-50
2022/03/25 04:45:47;;;;;;;24.70;21.75;;;;;;;;;;5077267;28;24853;-50
2022/03/25 04:48:14;;;;;;;25.43;21.97;;;;;;;;;;5082657;28;24457;-50
2022/03/25 04:50:39;;;;;;;24.83;21.27;;;;;;;;;;5085538;28;24998;-49
2022/03/25 04:53:06;;;;;;;24.57;21.97;;;;;;;;;;5075291;28;24446;-50
2022/03/25 04:55:31;;;;;;;24.20;21.60;;;;;;;;;;5083654;28;24702;-50
2022/03/25 04:57:56;;;;;;;24.57;21.97;;;;;;;;;;5085037;28;24526;-50
2022/03/25 05:00:22;;;;;;;26.60;22.13;;;;;;;;;;5088572;28;24478;-50
2022/03/25 05:02:47;;;;;;;27.23;23.00;;;;;;;;;;5073653;28;24425;-50
2022/03/25 05:05:13;;;;;;;27.17;23.30;;;;;;;;;;5072654;28;24418;-50
2022/03/25 05:07:46;;;;;;;26.45;23.27;;;;;;;;;;5081260;28;24479;-50
2022/03/25 05:10:11;;;;;;;26.15;22.20;;;;;;;;;;5079554;28;24426;-51
2022/03/25 05:12:37;;;;;;;27.45;23.20;;;;;;;;;;5077332;28;24803;-50
2022/03/25 05:15:02;;;;;;;25.73;22.70;;;;;;;;;;5076758;28;24666;-49
2022/03/25 05:17:27;;;;;;;26.33;21.60;;;;;;;;;;5080142;28;24413;-50
2022/03/25 05:19:54;;;;;;;25.73;22.40;;;;;;;;;;5069682;28;25298;-50
2022/03/25 05:22:19;;;;;;;23.80;21.20;;;;;;;;;;5076093;28;24442;-50
2022/03/25 05:24:44;;;;;;;25.00;21.60;;;;;;;;;;5075927;28;24841;-51
2022/03/25 05:27:09;;;;;;;23.63;20.70;;;;;;;;;;5076604;28;24499;-51
2022/03/25 05:29:34;;;;;;;24.02;21.33;;;;;;;;;;5078558;28;24399;-50
2022/03/25 05:31:59;;;;;;;25.90;22.43;;;;;;;;;;5076369;28;24533;-50
2022/03/25 05:34:25;;;;;;;24.90;21.33;;;;;;;;;;5084924;28;24972;-50
2022/03/25 05:36:50;;;;;;;24.38;21.77;;;;;;;;;;5076713;28;24421;-50
2022/03/25 05:39:15;;;;;;;26.35;22.50;;;;;;;;;;5073087;28;24979;-50
2022/03/25 05:41:40;;;;;;;25.83;22.10;;;;;;;;;;5066603;28;24480;-50
2022/03/25 05:44:06;;;;;;;24.50;21.80;;;;;;;;;;5077820;28;24442;-50
2022/03/25 05:46:31;;;;;;;25.13;22.20;;;;;;;;;;5068325;28;24708;-50
2022/03/25 05:48:56;;;;;;;25.60;22.70;;;;;;;;;;5075872;28;24484;-49
2022/03/25 05:51:21;;;;;;;26.10;21.80;;;;;;;;;;5075731;28;24436;-50
2022/03/25 05:53:47;;;;;;;29.48;24.30;;;;;;;;;;5079840;28;24529;-49
2022/03/25 05:56:12;;;;;;;27.53;24.40;;;;;;;;;;5078499;28;24442;-49
2022/03/25 05:58:38;;;;;;;27.10;23.10;;;;;;;;;;5079471;28;24423;-49
2022/03/25 06:01:04;;;;;;;25.15;22.45;;;;;;;;;;5080672;28;24837;-49
2022/03/25 06:03:30;;;;;;;24.90;22.20;;;;;;;;;;5075432;28;24414;-49
2022/03/25 06:05:55;;;;;;;25.67;22.87;;;;;;;;;;5076917;28;25142;-48
2022/03/25 06:08:22;;;;;;;25.60;22.73;;;;;;;;;;5068539;28;24457;-49
2022/03/25 06:10:47;;;;;;;23.92;21.42;;;;;;;;;;5079920;28;24434;-48
2022/03/25 06:13:12;;;;;;;26.03;21.50;;;;;;;;;;5076904;28;24487;-48
2022/03/25 06:15:37;;;;;;;25.85;23.00;;;;;;;;;;5076507;28;24434;-49
2022/03/25 06:18:03;;;;;;;23.87;21.20;;;;;;;;;;5073934;28;24418;-49
2022/03/25 06:20:29;;;;;;;25.00;21.95;;;;;;;;;;5084569;28;24411;-48
2022/03/25 06:22:54;;;;;;;24.13;21.45;;;;;;;;;;5081137;28;24427;-49
2022/03/25 06:25:20;;;;;;;24.00;21.50;;;;;;;;;;5082710;28;24437;-49
2022/03/25 06:27:59;;;;;;;25.80;22.10;;;;;;;;;;5078366;28;24532;-48
2022/03/25 06:30:26;;;;;;;26.80;23.90;;;;;;;;;;5076706;28;24563;-49
2022/03/25 06:32:51;;;;;;;29.67;24.98;;;;;;;;;;5088338;28;24938;-48
2022/03/25 06:35:17;;;;;;;25.47;22.70;;;;;;;;;;5088813;28;24481;-49
2022/03/25 06:37:42;;;;;;;24.52;21.27;;;;;;;;;;5088535;28;24498;-49
2022/03/25 06:40:08;;;;;;;26.83;22.50;;;;;;;;;;5086649;28;24425;-49
2022/03/25 06:42:37;;;;;;;26.33;21.50;;;;;;;;;;5088474;28;24474;-49
2022/03/25 06:45:04;;;;;;;24.83;22.03;;;;;;;;;;5088619;28;24951;-49
2022/03/25 06:47:30;;;;;;;25.98;21.90;;;;;;;;;;5088102;28;24401;-49
2022/03/25 06:49:55;;;;;;;24.80;21.50;;;;;;;;;;5078372;28;24430;-50
2022/03/25 06:52:20;;;;;;;26.07;22.10;;;;;;;;;;5074126;28;24798;-50
2022/03/25 06:54:46;;;;;;;26.83;22.83;;;;;;;;;;5069312;28;24569;-50
2022/03/25 06:57:11;;;;;;;25.40;22.50;;;;;;;;;;5078070;28;24442;-50
2022/03/25 06:59:36;;;;;;;26.53;22.03;;;;;;;;;;5076890;28;24510;-49
2022/03/25 07:02:02;;;;;;;23.60;19.87;;;;;;;;;;5080403;28;24514;-49
2022/03/25 07:04:27;;;;;;;25.07;21.13;;;;;;;;;;5076054;28;24418;-50
2022/03/25 07:06:55;;;;;;;24.57;19.70;;;;;;;;;;5074107;28;24839;-51
2022/03/25 07:09:20;;;;;;;25.25;20.85;;;;;;;;;;5072431;28;24502;-49
2022/03/25 07:11:45;;;;;;;24.60;19.70;;;;;;;;;;5067321;28;24518;-50
2022/03/25 07:14:11;;;;;;;23.27;20.30;;;;;;;;;;5074804;28;24414;-50
2022/03/25 07:16:37;;;;;;;23.63;18.23;;;;;;;;;;5076722;28;24947;-50
2022/03/25 07:19:02;;;;;;;26.27;18.85;;;;;;;;;;5090172;28;24414;-49
2022/03/25 07:21:28;;;;;;;25.10;20.63;;;;;;;;;;5076764;28;24419;-50
2022/03/25 07:23:53;;;;;;;25.45;19.70;;;;;;;;;;5074528;28;24421;-52
2022/03/25 07:26:18;;;;;;;24.70;20.27;;;;;;;;;;5071297;28;24999;-50
2022/03/25 07:28:44;;;;;;;23.83;19.35;;;;;;;;;;5083335;28;24414;-49
2022/03/25 07:31:09;;;;;;;24.20;19.17;;;;;;;;;;5078301;28;24990;-50
2022/03/25 07:33:34;;;;;;;24.13;19.55;;;;;;;;;;5077531;28;24423;-50
2022/03/25 07:36:00;;;;;;;24.63;20.10;;;;;;;;;;5086008;28;24433;-50
2022/03/25 07:38:25;;;;;;;24.70;20.13;;;;;;;;;;5087288;28;24411;-49
2022/03/25 07:40:50;;;;;;;26.73;21.60;;;;;;;;;;5087717;28;24704;-50
2022/03/25 07:43:15;;;;;;;26.65;20.50;;;;;;;;;;5087497;28;24932;-49
2022/03/25 07:45:41;;;;;;;25.85;20.38;;;;;;;;;;5085080;28;24498;-50
2022/03/25 07:48:06;;;;;;;24.75;20.30;;;;;;;;;;5087876;28;24385;-50
2022/03/25 07:50:31;;;;;;;21.77;19.47;;;;;;;;;;5087020;28;25025;-50
2022/03/25 07:52:56;;;;;;;24.75;19.88;;;;;;;;;;5087238;28;24406;-50
2022/03/25 07:55:22;;;;;;;23.88;20.02;;;;;;;;;;5085964;28;24411;-50
2022/03/25 07:57:47;;;;;;;24.40;19.50;;;;;;;;;;5085033;28;24434;-49
2022/03/25 08:00:13;;;;;;;24.63;21.50;;;;;;;;;;5087410;28;24924;-50
2022/03/25 08:02:42;;;;;;;24.50;20.55;;;;;;;;;;5087470;28;24924;-50
2022/03/25 08:05:09;;;;;;;27.33;20.95;;;;;;;;;;5086901;28;24409;-51
2022/03/25 08:07:41;;;;;;;26.85;22.50;;;;;;;;;;5085342;28;24488;-50
2022/03/25 08:10:06;;;;;;;27.90;21.53;;;;;;;;;;5087139;28;24421;-50
2022/03/25 08:12:31;;;;;;;26.87;22.43;;;;;;;;;;5086996;28;25023;-51
2022/03/25 08:14:56;;;;;;;27.27;22.75;;;;;;;;;;5087309;28;24819;-50
2022/03/25 08:17:23;;;;;;;25.98;21.52;;;;;;;;;;5084789;28;24967;-50
2022/03/25 08:19:49;;;;;;;27.25;21.77;;;;;;;;;;5086962;28;24817;-50
2022/03/25 08:22:14;;;;;;;26.35;21.42;;;;;;;;;;5076581;28;24445;-51
2022/03/25 08:30:07;;;;;;;31.40;25.00;;;;;;;;;;5070777;28;24439;-50
2022/03/25 08:32:32;;;;;;;29.13;22.20;;;;;;;;;;5079597;28;25239;-50
2022/03/25 08:34:57;;;;;;;26.35;22.48;;;;;;;;;;5091309;28;24559;-50
2022/03/25 08:37:22;;;;;;;35.55;25.35;;;;;;;;;;5091052;28;24394;-50
2022/03/25 08:39:48;;;;;;;32.78;23.90;;;;;;;;;;5090838;28;24386;-50
2022/03/25 08:42:13;;;;;;;35.87;24.50;;;;;;;;;;5089180;28;24960;-50
2022/03/25 08:44:39;;;;;;;35.47;27.40;;;;;;;;;;5090669;28;24553;-50
2022/03/25 08:47:04;;;;;;;30.13;26.00;;;;;;;;;;5090872;28;24487;-50
2022/03/25 08:49:31;;;;;;;30.30;24.00;;;;;;;;;;5090474;28;24400;-51
2022/03/25 08:51:56;;;;;;;34.53;26.65;;;;;;;;;;5090719;28;24434;-50
2022/03/25 08:54:21;;;;;;;31.73;25.52;;;;;;;;;;5088774;28;24878;-51
2022/03/25 08:56:47;;;;;;;39.42;26.30;;;;;;;;;;5090705;28;24393;-51
2022/03/25 08:59:14;;;;;;;46.15;28.02;;;;;;;;;;5090251;28;24389;-51
2022/03/25 09:01:39;;;;;;;32.03;25.30;;;;;;;;;;5090496;28;24405;-51
2022/03/25 09:04:04;;;;;;;37.65;26.90;;;;;;;;;;5089038;28;24418;-50
2022/03/25 09:06:29;;;;;;;32.35;25.17;;;;;;;;;;5089941;28;24406;-51
2022/03/25 09:08:55;;;;;;;32.17;26.60;;;;;;;;;;5090294;28;24947;-51
2022/03/25 09:11:20;;;;;;;33.33;28.10;;;;;;;;;;5090867;28;24417;-50
2022/03/25 09:13:45;;;;;;;35.10;26.93;;;;;;;;;;5087908;28;24484;-50
2022/03/25 09:16:13;;;;;;;34.60;28.00;;;;;;;;;;5076313;28;25228;-51
2022/03/25 09:18:38;;;;;;;29.10;24.40;;;;;;;;;;5069710;28;24917;-51
2022/03/25 09:21:03;;;;;;;31.40;25.70;;;;;;;;;;5069955;28;24473;-50
2022/03/25 09:23:28;;;;;;;33.30;26.35;;;;;;;;;;5069974;28;24429;-50
2022/03/25 09:25:54;;;;;;;34.03;26.63;;;;;;;;;;5076193;28;24442;-50
2022/03/25 09:28:19;;;;;;;32.40;27.30;;;;;;;;;;5089964;28;24950;-51
2022/03/25 09:30:44;;;;;;;33.47;26.20;;;;;;;;;;5089775;28;24651;-51
2022/03/25 09:33:09;;;;;;;31.17;25.03;;;;;;;;;;5089258;28;24456;-50
2022/03/25 09:35:38;;;;;;;32.55;26.75;;;;;;;;;;5089899;28;24393;-51
2022/03/25 09:38:03;;;;;;;35.42;26.73;;;;;;;;;;5069662;28;24438;-50
2022/03/25 09:40:29;;;;;;;31.38;25.33;;;;;;;;;;5069914;28;24433;-50
2022/03/25 09:42:55;;;;;;;29.40;24.63;;;;;;;;;;5069284;28;24931;-50
2022/03/25 09:45:22;;;;;;;29.27;24.40;;;;;;;;;;5069389;28;25120;-50
2022/03/25 09:47:48;;;;;;;30.15;23.75;;;;;;;;;;5082998;28;24429;-50
2022/03/25 09:50:15;;;;;;;31.50;26.43;;;;;;;;;;5089350;28;24464;-50
2022/03/25 09:52:42;;;;;;;31.10;24.70;;;;;;;;;;5089302;28;24745;-50
2022/03/25 09:55:08;;;;;;;30.47;24.87;;;;;;;;;;5089858;28;24387;-50
2022/03/25 09:57:33;;;;;;;27.90;23.73;;;;;;;;;;5087689;28;24769;-50
2022/03/25 09:59:59;;;;;;;27.20;23.40;;;;;;;;;;5089197;28;24389;-51
2022/03/25 10:02:26;;;;;;;33.70;25.60;;;;;;;;;;5089555;28;24454;-50
2022/03/25 10:04:53;;;;;;;32.42;25.23;;;;;;;;;;5089536;28;24406;-51
2022/03/25 10:07:30;;;;;;;28.25;23.50;;;;;;;;;;5087901;28;24615;-50
2022/03/25 10:10:11;;;;;;;29.52;24.50;;;;;;;;;;5069295;28;24394;-49
2022/03/25 10:12:38;;;;;;;29.88;25.13;;;;;;;;;;5068762;28;24495;-48
2022/03/25 10:15:12;;;;;;;26.40;22.77;;;;;;;;;;5069147;28;24383;-49
2022/03/25 10:18:04;;;;;;;27.60;22.77;;;;;;;;;;5069180;28;24482;-49
2022/03/25 10:20:30;;;;;;;25.02;20.92;;;;;;;;;;5066348;28;24522;-48
2022/03/25 10:22:56;;;;;;;30.02;24.70;;;;;;;;;;5069013;28;24402;-51
2022/03/25 10:25:31;;;;;;;27.65;22.15;;;;;;;;;;5069186;28;24490;-50
2022/03/25 10:27:56;;;;;;;26.70;21.13;;;;;;;;;;5068779;28;24522;-49
2022/03/25 10:30:32;;;;;;;28.92;22.02;;;;;;;;;;5084729;28;24502;-49
2022/03/25 10:33:06;;;;;;;27.05;22.50;;;;;;;;;;5088976;28;24990;-50
2022/03/25 10:35:31;;;;;;;28.08;21.27;;;;;;;;;;5088563;28;24826;-49
2022/03/25 10:37:58;;;;;;;25.77;20.73;;;;;;;;;;5089017;28;24998;-50
2022/03/25 10:40:23;;;;;;;27.13;21.20;;;;;;;;;;5086940;28;24552;-49
2022/03/25 10:43:07;;;;;;;26.90;20.70;;;;;;;;;;5088579;28;24413;-49
2022/03/25 10:45:39;;;;;;;25.55;20.60;;;;;;;;;;5087600;28;24382;-50
2022/03/25 10:48:12;;;;;;;22.63;19.00;;;;;;;;;;5088905;28;24421;-50
2022/03/25 10:50:56;;;;;;;23.92;19.08;;;;;;;;;;5086803;28;24513;-50
2022/03/25 10:53:21;;;;;;;21.88;17.80;;;;;;;;;;5085887;28;24501;-50
2022/03/25 10:55:56;;;;;;;20.63;17.77;;;;;;;;;;5068384;28;24506;-50
2022/03/25 10:58:21;;;;;;;21.88;18.67;;;;;;;;;;5068139;28;24406;-54
2022/03/25 11:00:47;;;;;;;23.63;17.20;;;;;;;;;;5068107;28;24402;-50
2022/03/25 11:03:15;;;;;;;20.67;16.42;;;;;;;;;;5073729;28;24398;-50
2022/03/25 11:05:41;;;;;;;21.48;17.05;;;;;;;;;;5086181;28;24834;-50
2022/03/25 11:08:07;;;;;;;20.13;16.27;;;;;;;;;;5088666;28;24963;-50
2022/03/25 11:10:32;;;;;;;19.17;15.18;;;;;;;;;;5087772;28;24445;-50
2022/03/25 11:12:57;;;;;;;16.27;13.37;;;;;;;;;;5087963;28;24621;-49
2022/03/25 11:15:22;;;;;;;21.47;15.67;;;;;;;;;;5078950;28;24502;-50
2022/03/25 11:17:47;;;;;;;20.35;16.50;;;;;;;;;;5068014;28;24464;-50
2022/03/25 11:20:14;;;;;;;20.75;16.13;;;;;;;;;;5067507;28;24403;-49
2022/03/25 11:22:44;;;;;;;20.10;15.50;;;;;;;;;;5067681;28;24403;-50
2022/03/25 11:25:11;;;;;;;19.75;14.50;;;;;;;;;;5067836;28;24415;-50
2022/03/25 11:27:38;;;;;;;17.08;14.50;;;;;;;;;;5067340;28;24467;-50
2022/03/25 11:30:05;;;;;;;16.58;13.57;;;;;;;;;;5067440;28;25227;-50
2022/03/25 11:32:30;;;;;;;20.10;14.43;;;;;;;;;;5067469;28;24503;-50
2022/03/25 11:34:57;;;;;;;22.13;16.45;;;;;;;;;;5066496;28;21380;-50
2022/03/25 11:37:22;;;;;;;23.05;16.65;;;;;;;;;;5067429;28;24418;-50
2022/03/25 11:39:48;;;;;;;22.23;16.57;;;;;;;;;;5084935;28;24733;-50
2022/03/25 11:42:32;;;;;;;18.48;15.25;;;;;;;;;;5087259;28;24464;-50
2022/03/25 11:45:16;;;;;;;22.85;16.83;;;;;;;;;;5087385;28;24938;-50
2022/03/25 11:47:41;;;;;;;19.75;15.02;;;;;;;;;;5067379;28;24395;-49
2022/03/25 11:50:23;;;;;;;17.70;14.03;;;;;;;;;;5066896;28;24492;-50
2022/03/25 11:52:49;;;;;;;19.85;14.50;;;;;;;;;;5067201;28;24890;-50
2022/03/25 11:55:14;;;;;;;17.80;13.90;;;;;;;;;;5067005;28;24927;-50
2022/03/25 11:57:39;;;;;;;19.40;13.83;;;;;;;;;;5067062;28;24529;-50
2022/03/25 12:00:06;;;;;;;17.05;13.45;;;;;;;;;;5067229;28;24952;-50
2022/03/25 12:02:38;;;;;;;14.17;12.47;;;;;;;;;;5075625;28;24395;-50
2022/03/25 12:05:04;;;;;;;17.25;12.57;;;;;;;;;;5087192;28;24464;-51
2022/03/25 12:07:30;;;;;;;17.02;12.20;;;;;;;;;;5086781;28;24995;-50
2022/03/25 12:09:55;;;;;;;14.40;11.80;;;;;;;;;;5087211;28;24509;-50
2022/03/25 12:12:40;;;;;;;14.63;12.30;;;;;;;;;;5087310;28;24414;-50
2022/03/25 12:15:10;;;;;;;17.70;13.00;;;;;;;;;;5086869;28;24426;-50
2022/03/25 12:17:36;;;;;;;17.17;13.35;;;;;;;;;;5086747;28;24397;-51
2022/03/25 12:20:03;;;;;;;20.43;14.30;;;;;;;;;;5086936;28;24386;-50
2022/03/25 12:22:30;;;;;;;15.60;12.63;;;;;;;;;;5087397;28;24448;-51
2022/03/25 12:24:56;;;;;;;14.68;12.20;;;;;;;;;;5087037;28;24448;-51
2022/03/25 12:27:21;;;;;;;14.75;11.85;;;;;;;;;;5087002;28;24826;-50
2022/03/25 12:29:48;;;;;;;14.10;12.52;;;;;;;;;;5086588;28;24958;-50
2022/03/25 12:32:14;;;;;;;17.55;14.18;;;;;;;;;;5086566;28;24422;-50
2022/03/25 12:34:53;;;;;;;17.45;15.13;;;;;;;;;;5086502;28;24381;-50
2022/03/25 12:37:24;;;;;;;22.10;17.55;;;;;;;;;;5087091;28;24390;-50
2022/03/25 12:39:49;;;;;;;22.00;15.93;;;;;;;;;;5086418;28;24391;-50
2022/03/25 12:42:14;;;;;;;19.77;15.80;;;;;;;;;;5086591;28;24455;-50
2022/03/25 12:44:39;;;;;;;19.03;16.13;;;;;;;;;;5087012;28;24473;-52
2022/03/25 12:47:06;;;;;;;16.88;13.70;;;;;;;;;;5078881;28;24418;-51
2022/03/25 12:49:32;;;;;;;20.92;16.35;;;;;;;;;;5066346;28;24485;-51
2022/03/25 12:51:58;;;;;;;19.13;15.30;;;;;;;;;;5066184;28;24821;-50
2022/03/25 12:54:23;;;;;;;27.23;20.63;;;;;;;;;;5066776;28;24394;-50
2022/03/25 12:57:02;;;;;;;24.07;20.10;;;;;;;;;;5075322;28;24896;-50
2022/03/25 12:59:32;;;;;;;25.60;21.30;;;;;;;;;;5086804;28;24398;-50
2022/03/25 13:02:08;;;;;;;22.15;18.55;;;;;;;;;;5086526;28;24985;-51
2022/03/25 13:04:37;;;;;;;21.63;18.10;;;;;;;;;;5086158;28;24982;-50
2022/03/25 13:07:10;;;;;;;24.60;19.20;;;;;;;;;;5076798;28;24479;-50
2022/03/25 13:09:52;;;;;;;18.87;16.87;;;;;;;;;;5069795;28;24419;-50
2022/03/25 13:12:34;;;;;;;22.95;19.17;;;;;;;;;;5069067;28;24438;-50
2022/03/25 13:15:08;;;;;;;20.43;16.53;;;;;;;;;;5069931;28;24452;-50
2022/03/25 13:17:55;;;;;;;24.77;20.30;;;;;;;;;;5069581;28;24406;-51
2022/03/25 13:20:27;;;;;;;28.25;21.88;;;;;;;;;;5069206;28;24641;-50
2022/03/25 13:23:00;;;;;;;26.52;22.65;;;;;;;;;;5069526;28;24482;-50
2022/03/25 13:25:31;;;;;;;25.10;21.00;;;;;;;;;;5069482;28;24410;-50
2022/03/25 13:28:00;;;;;;;26.77;23.10;;;;;;;;;;5069155;28;24869;-50
2022/03/25 13:30:29;;;;;;;22.33;19.92;;;;;;;;;;5068781;28;24406;-50
2022/03/25 13:33:00;;;;;;;23.05;19.27;;;;;;;;;;5068345;28;24932;-50
2022/03/25 13:35:34;;;;;;;26.40;21.23;;;;;;;;;;5069731;28;24453;-50
2022/03/25 13:38:09;;;;;;;26.30;21.23;;;;;;;;;;5078410;28;24411;-50
2022/03/25 13:40:42;;;;;;;26.77;21.90;;;;;;;;;;5089517;28;24529;-50
2022/03/25 13:43:12;;;;;;;26.25;20.65;;;;;;;;;;5088302;28;24509;-50
2022/03/25 13:46:00;;;;;;;25.33;21.23;;;;;;;;;;5089604;28;24477;-48
2022/03/25 13:48:39;;;;;;;25.10;21.98;;;;;;;;;;5080115;28;24410;-48
2022/03/25 13:51:33;;;;;;;28.17;22.60;;;;;;;;;;5068670;28;24984;-49
2022/03/25 13:54:03;;;;;;;25.63;22.33;;;;;;;;;;5068679;28;24472;-49
2022/03/25 13:56:42;;;;;;;26.13;20.73;;;;;;;;;;5069065;28;24491;-49
2022/03/25 13:59:10;;;;;;;26.70;22.52;;;;;;;;;;5087978;28;25433;-49
2022/03/25 14:01:37;;;;;;;24.83;20.98;;;;;;;;;;5089655;28;24996;-49
2022/03/25 14:04:04;;;;;;;24.15;20.80;;;;;;;;;;5088957;28;24389;-49
2022/03/25 14:06:40;;;;;;;21.60;18.20;;;;;;;;;;5089434;28;24487;-49
2022/03/25 14:09:22;;;;;;;24.60;21.00;;;;;;;;;;5088876;28;24410;-49
2022/03/25 14:11:47;;;;;;;32.00;23.23;;;;;;;;;;5088912;28;24408;-49
2022/03/25 14:14:24;;;;;;;28.63;23.40;;;;;;;;;;5088481;28;24405;-50
2022/03/25 14:16:53;;;;;;;30.00;22.35;;;;;;;;;;5087183;28;24880;-49
2022/03/25 14:19:18;;;;;;;28.42;23.17;;;;;;;;;;5087987;28;24485;-49
2022/03/25 14:21:43;;;;;;;28.75;22.80;;;;;;;;;;5087357;28;24838;-49